createdAt,value
2022-08-11T00:01:35.755Z,10.10
2022-08-11T00:04:28.496Z,8.60
2022-08-11T00:07:20.586Z,9.30
2022-08-11T00:10:13.901Z,8.10
2022-08-11T00:13:07.751Z,9.00
2022-08-11T00:15:59.041Z,7.40
2022-08-11T00:18:53.818Z,7.50
2022-08-11T00:22:04.752Z,7.40
2022-08-11T00:25:01.758Z,7.50
2022-08-11T00:27:55.057Z,7.70
2022-08-11T00:30:45.896Z,6.40
2022-08-11T00:33:41.175Z,5.90
2022-08-11T00:36:44.512Z,7.00
2022-08-11T00:39:38.631Z,6.30
2022-08-11T00:42:52.988Z,8.40
2022-08-11T00:45:53.010Z,9.00
2022-08-11T00:48:56.661Z,7.40
2022-08-11T00:52:10.342Z,7.40
2022-08-11T00:55:27.821Z,7.80
2022-08-11T00:58:50.830Z,7.60
2022-08-11T01:01:58.427Z,9.20
2022-08-11T01:05:27.400Z,7.30
2022-08-11T01:08:56.500Z,6.90
2022-08-11T01:12:06.962Z,8.40
2022-08-11T01:15:27.062Z,10.00
2022-08-11T01:19:02.287Z,9.10
2022-08-11T01:22:25.215Z,7.90
2022-08-11T01:25:56.800Z,8.00
2022-08-11T01:29:14.928Z,6.40
2022-08-11T01:32:40.018Z,9.60
2022-08-11T01:36:02.353Z,9.30
2022-08-11T01:39:47.016Z,14.00
2022-08-11T01:43:29.967Z,11.40
2022-08-11T01:46:29.744Z,10.70
2022-08-11T01:50:05.895Z,11.00
2022-08-11T01:52:51.166Z,12.00
2022-08-11T01:55:57.584Z,10.80
2022-08-11T01:58:59.574Z,9.90
2022-08-11T02:02:21.456Z,10.70
2022-08-11T02:05:24.384Z,10.50
2022-08-11T02:08:33.456Z,9.00
2022-08-11T02:11:37.533Z,9.60
2022-08-11T02:14:35.860Z,9.10
2022-08-11T02:17:42.787Z,9.60
2022-08-11T02:20:56.138Z,8.30
2022-08-11T02:24:05.292Z,8.90
2022-08-11T02:27:06.138Z,7.50
2022-08-11T02:30:05.194Z,9.20
2022-08-11T02:33:25.136Z,10.30
2022-08-11T02:36:23.699Z,8.70
2022-08-11T02:39:19.456Z,9.40
2022-08-11T02:42:36.157Z,8.70
2022-08-11T02:45:47.482Z,7.60
2022-08-11T02:49:05.711Z,9.20
2022-08-11T02:52:10.936Z,8.20
2022-08-11T02:55:56.348Z,8.10
2022-08-11T02:59:06.082Z,9.60
2022-08-11T03:02:05.371Z,7.90
2022-08-11T03:05:14.266Z,8.70
2022-08-11T03:08:20.779Z,9.30
2022-08-11T03:11:37.090Z,9.80
2022-08-11T03:14:54.539Z,8.80
2022-08-11T03:17:59.451Z,9.70
2022-08-11T03:20:55.156Z,9.70
2022-08-11T03:23:57.507Z,7.80
2022-08-11T03:27:04.459Z,10.10
2022-08-11T03:30:09.216Z,8.50
2022-08-11T03:33:34.153Z,7.80
2022-08-11T03:37:16.485Z,9.20
2022-08-11T03:40:48.336Z,7.30
2022-08-11T03:43:58.495Z,6.80
2022-08-11T03:47:05.383Z,8.40
2022-08-11T03:50:14.889Z,7.90
2022-08-11T03:53:17.782Z,8.30
2022-08-11T03:56:58.859Z,9.00
2022-08-11T04:00:21.760Z,7.00
2022-08-11T04:03:38.674Z,6.60
2022-08-11T04:06:52.738Z,6.60
2022-08-11T04:10:19.597Z,7.30
2022-08-11T04:13:42.280Z,6.90
2022-08-11T04:16:46.582Z,7.90
2022-08-11T04:20:20.206Z,6.30
2022-08-11T04:24:35.011Z,6.10
2022-08-11T04:27:14.675Z,8.10
2022-08-11T04:30:14.915Z,7.10
2022-08-11T04:33:46.463Z,7.60
2022-08-11T04:37:17.904Z,6.60
2022-08-11T04:40:51.315Z,8.90
2022-08-11T04:44:06.451Z,6.60
2022-08-11T04:48:01.907Z,5.60
2022-08-11T04:51:26.644Z,6.50
2022-08-11T04:54:50.585Z,6.90
2022-08-11T04:58:29.406Z,6.20
2022-08-11T05:01:42.421Z,6.20
2022-08-11T05:05:10.663Z,7.00
2022-08-11T05:08:37.917Z,8.50
2022-08-11T05:11:47.113Z,7.00
2022-08-11T05:15:00.219Z,6.20
2022-08-11T05:18:31.882Z,6.90
2022-08-11T05:21:44.786Z,5.60
2022-08-11T05:24:59.971Z,5.50
2022-08-11T05:28:22.657Z,6.60
2022-08-11T05:31:34.211Z,6.10
2022-08-11T05:34:45.401Z,8.20
2022-08-11T05:38:02.878Z,8.90
2022-08-11T05:41:12.692Z,7.10
2022-08-11T05:44:22.704Z,6.50
2022-08-11T05:47:40.219Z,7.70
2022-08-11T05:50:48.289Z,6.10
2022-08-11T05:54:28.241Z,6.20
2022-08-11T05:57:44.047Z,6.40
2022-08-11T06:00:46.088Z,7.20
2022-08-11T06:03:58.488Z,4.00
2022-08-11T06:06:57.193Z,4.40
2022-08-11T06:09:52.743Z,6.50
2022-08-11T06:12:44.870Z,5.10
2022-08-11T06:15:45.327Z,3.80
2022-08-11T06:18:37.431Z,5.70
2022-08-11T06:21:29.123Z,5.50
2022-08-11T06:24:20.496Z,7.40
2022-08-11T06:27:13.325Z,5.30
2022-08-11T06:30:13.642Z,4.80
2022-08-11T06:33:05.984Z,4.10
2022-08-11T06:36:05.471Z,5.80
2022-08-11T06:39:10.554Z,7.90
2022-08-11T06:42:06.703Z,7.90
2022-08-11T06:45:17.218Z,5.40
2022-08-11T06:48:11.251Z,7.30
2022-08-11T06:51:13.848Z,4.90
2022-08-11T06:54:05.999Z,6.50
2022-08-11T06:57:30.521Z,4.00
2022-08-11T07:00:33.216Z,6.10
2022-08-11T07:03:24.873Z,5.00
2022-08-11T07:06:41.637Z,4.90
2022-08-11T07:10:38.925Z,4.70
2022-08-11T07:13:50.630Z,4.80
2022-08-11T07:16:46.079Z,6.00
2022-08-11T07:19:53.838Z,4.50
2022-08-11T07:23:05.677Z,6.90
2022-08-11T07:26:17.166Z,6.10
2022-08-11T07:29:08.785Z,4.70
2022-08-11T07:32:03.539Z,8.20
2022-08-11T07:35:01.951Z,6.50
2022-08-11T07:38:02.486Z,4.90
2022-08-11T07:40:55.155Z,4.70
2022-08-11T07:43:49.158Z,5.20
2022-08-11T07:47:01.130Z,4.40
2022-08-11T07:50:11.824Z,5.10
2022-08-11T07:53:03.973Z,6.70
2022-08-11T07:56:00.553Z,6.60
2022-08-11T07:59:11.194Z,4.60
2022-08-11T08:02:21.300Z,4.80
2022-08-11T08:05:29.741Z,5.40
2022-08-11T08:08:38.066Z,5.00
2022-08-11T08:11:45.781Z,6.30
2022-08-11T08:14:54.072Z,6.10
2022-08-11T08:18:09.440Z,6.50
2022-08-11T08:21:13.221Z,5.60
2022-08-11T08:24:04.619Z,6.80
2022-08-11T08:27:01.597Z,7.40
2022-08-11T08:30:09.705Z,7.10
2022-08-11T08:33:01.351Z,6.70
2022-08-11T08:36:11.957Z,6.40
2022-08-11T08:39:02.881Z,5.20
2022-08-11T08:41:57.422Z,5.90
2022-08-11T08:44:52.783Z,5.60
2022-08-11T08:47:53.069Z,4.40
2022-08-11T08:51:08.104Z,5.40
2022-08-11T08:54:02.528Z,3.80
2022-08-11T08:56:56.701Z,4.80
2022-08-11T08:59:51.477Z,4.60
2022-08-11T09:02:42.702Z,6.10
2022-08-11T09:05:33.055Z,5.20
2022-08-11T09:08:24.428Z,4.60
2022-08-11T09:11:34.554Z,7.20
2022-08-11T09:14:45.973Z,4.60
2022-08-11T09:17:40.218Z,5.30
2022-08-11T09:20:34.222Z,14.60
2022-08-11T09:24:07.837Z,6.40
2022-08-11T09:27:03.269Z,10.70
2022-08-11T09:29:54.711Z,6.60
2022-08-11T09:32:45.268Z,5.90
2022-08-11T09:35:38.847Z,7.20
2022-08-11T09:38:49.562Z,6.90
2022-08-11T09:42:01.015Z,6.20
2022-08-11T09:44:54.009Z,9.30
2022-08-11T09:47:45.398Z,4.90
2022-08-11T09:50:39.820Z,6.20
2022-08-11T09:53:40.655Z,7.20
2022-08-11T09:56:50.648Z,6.80
2022-08-11T09:59:41.627Z,7.60
2022-08-11T10:02:33.895Z,5.00
2022-08-11T10:05:43.147Z,6.80
2022-08-11T10:08:36.928Z,6.80
2022-08-11T10:11:29.262Z,7.00
2022-08-11T10:14:44.424Z,6.10
2022-08-11T10:17:39.142Z,5.80
2022-08-11T10:20:31.207Z,5.30
2022-08-11T10:24:00.556Z,4.80
2022-08-11T10:26:54.862Z,5.50
2022-08-11T10:30:03.294Z,7.00
2022-08-11T10:33:12.690Z,7.40
2022-08-11T10:36:23.833Z,10.30
2022-08-11T10:39:18.142Z,9.00
2022-08-11T10:42:55.139Z,13.30
2022-08-11T10:46:05.770Z,9.50
2022-08-11T10:48:59.357Z,10.70
2022-08-11T10:52:07.051Z,10.70
2022-08-11T10:55:17.253Z,10.00
2022-08-11T10:58:25.115Z,8.80
2022-08-11T11:01:16.613Z,11.00
2022-08-11T11:04:10.885Z,9.70
2022-08-11T11:07:07.563Z,11.50
2022-08-11T11:10:03.026Z,13.50
2022-08-11T11:13:15.397Z,8.50
2022-08-11T11:16:23.095Z,8.10
2022-08-11T11:19:24.078Z,10.60
2022-08-11T11:22:34.487Z,12.40
2022-08-11T11:25:34.098Z,7.60
2022-08-11T11:28:44.483Z,12.00
2022-08-11T11:31:47.475Z,9.80
2022-08-11T11:35:10.902Z,9.20
2022-08-11T11:38:04.958Z,8.80
2022-08-11T11:41:10.689Z,12.70
2022-08-11T11:44:01.683Z,9.60
2022-08-11T11:46:54.267Z,10.60
2022-08-11T11:49:46.136Z,8.00
2022-08-11T11:52:38.083Z,9.20
2022-08-11T11:55:31.366Z,7.90
2022-08-11T11:58:40.286Z,11.60
2022-08-11T12:01:31.543Z,9.30
2022-08-11T12:04:24.309Z,8.20
2022-08-11T12:07:47.265Z,7.50
2022-08-11T12:11:13.227Z,10.00
2022-08-11T12:14:10.649Z,8.20
2022-08-11T12:17:03.581Z,11.10
2022-08-11T12:19:57.342Z,9.10
2022-08-11T12:23:06.461Z,9.20
2022-08-11T12:26:26.937Z,8.50
2022-08-11T12:29:21.333Z,8.50
2022-08-11T12:32:13.416Z,8.50
2022-08-11T12:35:04.703Z,9.40
2022-08-11T12:38:04.881Z,14.10
2022-08-11T12:41:18.347Z,8.60
2022-08-11T12:44:29.964Z,8.90
2022-08-11T12:47:23.767Z,9.60
2022-08-11T12:50:32.507Z,8.90
2022-08-11T12:53:26.678Z,8.70
2022-08-11T12:56:34.800Z,9.00
2022-08-11T12:59:43.271Z,9.50
2022-08-11T13:02:51.850Z,10.70
2022-08-11T13:05:44.522Z,7.80
2022-08-11T13:08:38.753Z,10.20
2022-08-11T13:11:55.804Z,10.30
2022-08-11T13:14:48.413Z,9.10
2022-08-11T13:17:44.016Z,8.50
2022-08-11T13:20:36.023Z,6.90
2022-08-11T13:23:29.682Z,8.90
2022-08-11T13:26:24.599Z,7.70
2022-08-11T13:29:32.428Z,7.80
2022-08-11T13:32:26.406Z,7.30
2022-08-11T13:35:17.425Z,8.20
2022-08-11T13:38:17.423Z,8.70
2022-08-11T13:41:24.992Z,7.80
2022-08-11T13:44:24.666Z,10.20
2022-08-11T13:47:16.862Z,12.00
2022-08-11T13:50:08.976Z,10.20
2022-08-11T13:53:02.546Z,9.50
2022-08-11T13:55:53.360Z,7.20
2022-08-11T13:58:45.178Z,8.00
2022-08-11T14:02:20.730Z,9.10
2022-08-11T14:05:04.325Z,9.00
2022-08-11T14:08:03.149Z,7.40
2022-08-11T14:12:19.792Z,8.50
2022-08-11T14:14:28.692Z,8.70
2022-08-11T14:17:47.055Z,7.80
2022-08-11T14:20:54.682Z,8.20
2022-08-11T14:23:48.024Z,8.60
2022-08-11T14:26:39.913Z,8.10
2022-08-11T14:29:32.720Z,7.80
2022-08-11T14:32:36.002Z,9.50
2022-08-11T14:35:44.418Z,6.30
2022-08-11T14:38:38.306Z,9.90
2022-08-11T14:42:10.923Z,10.60
2022-08-11T14:45:18.239Z,9.60
2022-08-11T14:48:12.147Z,10.40
2022-08-11T14:51:02.701Z,8.20
2022-08-11T14:54:13.059Z,8.70
2022-08-11T14:57:07.224Z,10.00
2022-08-11T14:59:59.446Z,10.40
2022-08-11T15:03:08.832Z,10.40
2022-08-11T15:06:02.168Z,8.40
2022-08-11T15:08:55.950Z,8.90
2022-08-11T15:12:06.851Z,9.30
2022-08-11T15:15:36.275Z,11.00
2022-08-11T15:18:27.385Z,8.30
2022-08-11T15:21:40.758Z,7.30
2022-08-11T15:24:31.295Z,10.60
2022-08-11T15:27:42.141Z,11.20
2022-08-11T15:30:51.225Z,8.60
2022-08-11T15:33:59.952Z,11.90
2022-08-11T15:37:09.617Z,9.00
2022-08-11T15:40:31.770Z,8.30
2022-08-11T15:43:45.414Z,9.30
2022-08-11T15:46:41.358Z,7.20
2022-08-11T15:50:12.901Z,9.00
2022-08-11T15:52:54.472Z,8.60
2022-08-11T15:55:45.503Z,9.20
2022-08-11T15:59:16.349Z,8.40
2022-08-11T16:02:30.619Z,7.40
2022-08-11T16:05:25.116Z,9.90
2022-08-11T16:08:36.247Z,8.50
2022-08-11T16:11:29.169Z,8.50
2022-08-11T16:14:40.875Z,10.30
2022-08-11T16:17:37.498Z,10.40
2022-08-11T16:20:31.381Z,11.80
2022-08-11T16:23:22.296Z,13.80
2022-08-11T16:27:10.191Z,11.00
2022-08-11T16:29:31.902Z,9.00
2022-08-11T16:32:25.850Z,10.00
2022-08-11T16:35:36.255Z,10.70
2022-08-11T16:38:35.985Z,8.60
2022-08-11T16:41:48.236Z,10.00
2022-08-11T16:44:56.881Z,8.20
2022-08-11T16:48:03.004Z,9.40
2022-08-11T16:51:01.087Z,8.40
2022-08-11T16:54:04.181Z,10.40
2022-08-11T16:57:18.704Z,10.50
2022-08-11T17:00:14.940Z,8.60
2022-08-11T17:03:24.644Z,8.00
2022-08-11T17:06:33.228Z,11.30
2022-08-11T17:09:45.886Z,7.40
2022-08-11T17:12:59.370Z,11.50
2022-08-11T17:16:12.138Z,13.40
2022-08-11T17:19:06.280Z,8.60
2022-08-11T17:22:15.067Z,9.20
2022-08-11T17:25:08.008Z,10.60
2022-08-11T17:28:00.916Z,10.10
2022-08-11T17:31:18.474Z,7.50
2022-08-11T17:34:31.992Z,7.80
2022-08-11T17:37:24.868Z,7.20
2022-08-11T17:40:21.592Z,8.50
2022-08-11T17:43:30.147Z,8.40
2022-08-11T17:46:39.319Z,9.30
2022-08-11T17:49:37.868Z,7.00
2022-08-11T17:52:46.289Z,8.60
2022-08-11T17:55:56.011Z,7.90
2022-08-11T17:59:09.340Z,11.00
2022-08-11T18:02:34.420Z,9.70
2022-08-11T18:05:29.232Z,10.80
2022-08-11T18:08:40.007Z,7.40
2022-08-11T18:12:06.246Z,8.90
2022-08-11T18:15:17.742Z,9.80
2022-08-11T18:18:26.695Z,8.50
2022-08-11T18:21:37.487Z,7.10
2022-08-11T18:24:51.906Z,8.40
2022-08-11T18:28:02.213Z,6.40
2022-08-11T18:31:13.189Z,7.40
2022-08-11T18:34:24.160Z,8.60
2022-08-11T18:37:35.707Z,6.60
2022-08-11T18:40:47.726Z,7.10
2022-08-11T18:44:00.023Z,7.30
2022-08-11T18:47:12.110Z,8.90
2022-08-11T18:50:38.741Z,6.80
2022-08-11T18:53:49.934Z,5.70
2022-08-11T18:57:06.661Z,7.10
2022-08-11T19:00:18.602Z,6.40
2022-08-11T19:03:28.647Z,6.00
2022-08-11T19:06:40.883Z,8.80
2022-08-11T19:09:54.309Z,5.10
2022-08-11T19:13:04.745Z,7.90
2022-08-11T19:16:13.639Z,6.90
2022-08-11T19:19:23.133Z,6.40
2022-08-11T19:22:31.266Z,5.00
2022-08-11T19:25:40.341Z,5.70
2022-08-11T19:28:48.564Z,6.00
2022-08-11T19:31:58.008Z,6.40
2022-08-11T19:35:10.121Z,6.20
2022-08-11T19:38:20.142Z,6.50
2022-08-11T19:41:56.839Z,5.30
2022-08-11T19:45:02.134Z,5.00
2022-08-11T19:51:40.454Z,5.20
2022-08-11T19:54:53.197Z,6.10
2022-08-11T19:58:02.921Z,5.60
2022-08-11T20:01:12.468Z,5.30
2022-08-11T20:04:20.377Z,5.70
2022-08-11T20:07:31.939Z,5.30
2022-08-11T20:10:41.875Z,5.20
2022-08-11T20:13:50.685Z,6.00
2022-08-11T20:17:00.053Z,5.80
2022-08-11T20:20:09.151Z,7.30
2022-08-11T20:23:19.928Z,6.10
2022-08-11T20:26:31.324Z,6.50
2022-08-11T20:29:44.659Z,6.60
2022-08-11T20:32:52.802Z,9.20
2022-08-11T20:36:15.275Z,6.20
2022-08-11T20:39:29.275Z,7.10
2022-08-11T20:42:38.257Z,5.30
2022-08-11T20:45:56.715Z,5.80
2022-08-11T20:49:08.315Z,5.90
2022-08-11T20:52:16.834Z,5.00
2022-08-11T20:55:51.780Z,7.20
2022-08-11T21:02:25.749Z,6.10
2022-08-11T21:06:08.723Z,6.10
2022-08-11T21:09:02.588Z,6.10
2022-08-11T21:12:13.486Z,5.30
2022-08-11T21:15:47.459Z,6.50
2022-08-11T21:18:56.980Z,5.50
2022-08-11T21:22:06.569Z,5.80
2022-08-11T21:25:16.046Z,6.30
2022-08-11T21:28:26.969Z,6.90
2022-08-11T21:31:36.974Z,7.10
2022-08-11T21:34:45.284Z,5.60
2022-08-11T21:37:54.017Z,5.90
2022-08-11T21:41:03.042Z,5.80
2022-08-11T21:44:13.351Z,5.70
2022-08-11T21:47:43.624Z,6.60
2022-08-11T21:50:49.873Z,6.90
2022-08-11T21:53:58.684Z,7.00
2022-08-11T21:57:06.550Z,6.60
2022-08-11T22:00:16.609Z,6.20
2022-08-11T22:03:25.664Z,6.00
2022-08-11T22:06:35.143Z,8.40
2022-08-11T22:09:43.264Z,7.30
2022-08-11T22:12:50.959Z,6.50
2022-08-11T22:16:00.166Z,5.70
2022-08-11T22:19:09.635Z,5.50
2022-08-11T22:22:18.954Z,6.60
2022-08-11T22:25:38.802Z,6.20
2022-08-11T22:28:47.506Z,7.20
2022-08-11T22:32:00.395Z,5.80
2022-08-11T22:35:10.883Z,6.60
2022-08-11T22:38:20.846Z,7.80
2022-08-11T22:41:31.282Z,7.20
2022-08-11T22:44:39.697Z,7.40
2022-08-11T22:47:48.959Z,8.30
2022-08-11T22:50:59.137Z,14.00
2022-08-11T22:54:08.640Z,11.30
2022-08-11T22:57:17.800Z,9.80
2022-08-11T23:00:30.444Z,7.50
2022-08-11T23:03:39.426Z,9.80
2022-08-11T23:06:48.076Z,9.60
2022-08-11T23:09:56.601Z,8.30
2022-08-11T23:13:04.764Z,9.10
2022-08-11T23:16:13.564Z,5.90
2022-08-11T23:20:08.488Z,6.90
2022-08-11T23:22:51.891Z,6.80
2022-08-11T23:26:01.048Z,6.50
2022-08-11T23:29:10.549Z,6.90
2022-08-11T23:32:19.813Z,8.10
2022-08-11T23:35:38.771Z,6.10
2022-08-11T23:38:48.764Z,8.10
2022-08-11T23:41:56.486Z,6.60
2022-08-11T23:45:04.231Z,8.90
2022-08-11T23:48:21.334Z,7.40
2022-08-11T23:51:40.784Z,6.60
2022-08-11T23:54:51.106Z,7.10
2022-08-11T23:57:59.135Z,7.00
